Time;durP1;ratioP1;P1;durP2;ratioP2;P2;SDS_P1;SDS_P2;PMS_P1;PMS_P2;Temp;Humidity;BMP_temperature;BMP_pressure;BME280_temperature;BME280_humidity;BME280_pressure;Samples;Min_cycle;Max_cycle;Signal;HPM_P1;HPM_P2
2023/11/05 00:00:05;;;;;;;0.10;0.10;;;8.70;99.90;;;;;;4994249;28;20669;-56
2023/11/05 00:02:32;;;;;;;0.23;0.10;;;;;;;;;;4995000;28;20208;-57
2023/11/05 00:04:59;;;;;;;0.00;0.00;;;8.70;99.90;;;;;;4994336;28;20280;-56
2023/11/05 00:07:26;;;;;;;0.00;0.00;;;8.70;99.90;;;;;;4993311;28;20296;-57
2023/11/05 00:09:54;;;;;;;0.00;0.00;;;;;;;;;;4986322;28;20231;-57
2023/11/05 00:12:21;;;;;;;0.00;0.00;;;8.70;99.90;;;;;;4993199;28;20204;-57
2023/11/05 00:14:49;;;;;;;0.10;0.10;;;8.80;99.90;;;;;;4991174;28;20685;-56
2023/11/05 00:17:16;;;;;;;0.10;0.00;;;8.80;99.90;;;;;;4991170;28;20726;-57
2023/11/05 00:19:43;;;;;;;0.00;0.00;;;9.00;99.90;;;;;;4992780;28;20210;-57
2023/11/05 00:22:10;;;;;;;0.07;0.00;;;;;;;;;;4994595;28;20252;-57
2023/11/05 00:24:37;;;;;;;0.30;0.00;;;8.70;99.90;;;;;;4993365;28;20249;-57
2023/11/05 00:27:04;;;;;;;0.13;0.00;;;8.80;99.90;;;;;;4994714;28;20256;-57
2023/11/05 00:29:31;;;;;;;0.10;0.10;;;8.60;99.90;;;;;;4993853;28;20282;-56
2023/11/05 00:31:59;;;;;;;0.00;0.00;;;8.80;99.90;;;;;;4993082;28;20206;-57
2023/11/05 00:34:26;;;;;;;0.10;0.00;;;8.90;99.90;;;;;;4993884;28;20225;-56
2023/11/05 00:36:54;;;;;;;0.00;0.00;;;;;;;;;;4992692;28;20233;-57
2023/11/05 00:39:20;;;;;;;0.23;0.00;;;8.90;99.90;;;;;;4992869;28;20202;-57
2023/11/05 00:41:47;;;;;;;0.00;0.00;;;8.90;99.90;;;;;;4993013;28;20666;-56
2023/11/05 00:44:14;;;;;;;0.50;0.00;;;8.90;99.90;;;;;;4992043;28;20266;-57
2023/11/05 00:46:42;;;;;;;0.00;0.00;;;;;;;;;;4994015;28;20230;-57
2023/11/05 00:49:10;;;;;;;0.00;0.00;;;8.90;99.90;;;;;;4994295;28;20266;-57
2023/11/05 00:51:37;;;;;;;0.07;0.00;;;8.90;99.90;;;;;;4992865;28;20765;-57
2023/11/05 00:54:04;;;;;;;0.00;0.00;;;;;;;;;;4993842;28;20218;-56
2023/11/05 00:56:31;;;;;;;0.00;0.00;;;8.90;99.90;;;;;;4984115;28;20229;-56
2023/11/05 00:58:58;;;;;;;0.00;0.00;;;9.00;99.90;;;;;;4992268;28;20276;-56
2023/11/05 01:01:26;;;;;;;0.00;0.00;;;;;;;;;;4993058;28;20280;-57
2023/11/05 01:03:53;;;;;;;0.00;0.00;;;9.00;99.90;;;;;;4993531;28;20681;-56
2023/11/05 01:06:21;;;;;;;0.87;0.00;;;9.00;99.90;;;;;;4992608;28;20233;-56
2023/11/05 01:08:48;;;;;;;0.00;0.00;;;8.90;99.90;;;;;;4993706;28;20640;-57
2023/11/05 01:11:15;;;;;;;0.07;0.07;;;8.90;99.90;;;;;;4991557;28;20201;-56
2023/11/05 01:13:42;;;;;;;0.00;0.00;;;8.90;99.90;;;;;;4993867;28;20312;-57
2023/11/05 01:16:09;;;;;;;0.00;0.00;;;;;;;;;;4993252;28;20284;-57
2023/11/05 01:18:37;;;;;;;0.07;0.00;;;8.80;99.90;;;;;;4993166;28;20206;-57
2023/11/05 01:21:04;;;;;;;1.07;0.00;;;;;;;;;;4990987;28;20273;-56
2023/11/05 01:23:33;;;;;;;0.03;0.00;;;;;;;;;;4990250;28;20206;-56
2023/11/05 01:26:00;;;;;;;0.00;0.00;;;;;;;;;;4993277;28;20791;-57
2023/11/05 01:28:27;;;;;;;0.00;0.00;;;8.80;99.90;;;;;;4993075;28;20264;-57
2023/11/05 01:30:54;;;;;;;0.30;0.00;;;;;;;;;;4993331;28;20701;-57
2023/11/05 01:33:21;;;;;;;0.50;0.00;;;8.80;99.90;;;;;;4991070;28;20312;-57
2023/11/05 01:35:48;;;;;;;0.00;0.00;;;8.80;99.90;;;;;;4992635;28;20245;-57
2023/11/05 01:38:15;;;;;;;1.33;0.00;;;8.80;99.90;;;;;;4990724;28;20740;-57
2023/11/05 01:40:43;;;;;;;0.53;0.20;;;8.80;99.90;;;;;;4993209;28;20201;-56
2023/11/05 01:43:11;;;;;;;0.17;0.10;;;8.80;99.90;;;;;;4991968;28;20665;-56
2023/11/05 01:45:38;;;;;;;0.53;0.00;;;8.60;99.90;;;;;;4990350;28;20229;-57
2023/11/05 01:48:06;;;;;;;0.00;0.00;;;;;;;;;;4992990;28;20198;-57
2023/11/05 01:50:34;;;;;;;2.27;0.00;;;;;;;;;;4990802;28;20273;-57
2023/11/05 01:53:03;;;;;;;0.30;0.00;;;8.40;99.90;;;;;;4992080;28;20206;-57
2023/11/05 01:55:30;;;;;;;0.20;0.00;;;8.50;99.90;;;;;;4992180;28;20639;-57
2023/11/05 01:57:58;;;;;;;0.07;0.00;;;8.40;99.90;;;;;;4991119;28;20349;-56
2023/11/05 02:00:26;;;;;;;0.20;0.00;;;8.40;99.90;;;;;;4991105;28;20440;-56
2023/11/05 02:02:53;;;;;;;1.90;0.00;;;8.30;99.90;;;;;;4988556;28;20211;-56
2023/11/05 02:05:20;;;;;;;0.00;0.00;;;;;;;;;;4988860;28;20222;-55
2023/11/05 02:07:47;;;;;;;0.13;0.00;;;8.30;99.90;;;;;;4991024;28;20214;-57
2023/11/05 02:10:14;;;;;;;0.10;0.00;;;8.40;99.90;;;;;;4991241;28;20264;-56
2023/11/05 02:12:56;;;;;;;0.00;0.00;;;;;;;;;;4992626;28;20250;-56
2023/11/05 02:15:25;;;;;;;0.00;0.00;;;8.40;99.90;;;;;;4991329;28;20248;-56
2023/11/05 02:17:52;;;;;;;0.00;0.00;;;8.40;99.90;;;;;;4992005;28;20640;-56
2023/11/05 02:20:19;;;;;;;1.50;0.00;;;8.50;99.90;;;;;;4992576;28;20586;-56
2023/11/05 02:22:48;;;;;;;0.00;0.00;;;8.50;99.90;;;;;;4988140;28;20209;-56
2023/11/05 02:25:19;;;;;;;0.00;0.00;;;;;;;;;;4990283;28;20244;-56
2023/11/05 02:27:48;;;;;;;0.00;0.00;;;;;;;;;;4983569;28;20215;-56
2023/11/05 02:30:17;;;;;;;0.00;0.00;;;;;;;;;;4992275;28;20289;-56
2023/11/05 02:32:44;;;;;;;0.00;0.00;;;8.70;99.90;;;;;;4991746;28;20204;-56
2023/11/05 02:35:11;;;;;;;0.00;0.00;;;8.90;99.90;;;;;;4990649;28;20344;-56
2023/11/05 02:37:39;;;;;;;0.00;0.00;;;8.90;99.90;;;;;;4983428;28;20687;-56
2023/11/05 02:40:08;;;;;;;0.00;0.00;;;9.00;99.90;;;;;;4989992;28;20206;-56
2023/11/05 02:42:36;;;;;;;0.00;0.00;;;;;;;;;;4991321;28;20249;-56
2023/11/05 02:45:03;;;;;;;0.00;0.00;;;;;;;;;;4988919;28;20285;-56
2023/11/05 02:47:31;;;;;;;0.00;0.00;;;;;;;;;;4990635;28;20210;-56
2023/11/05 02:49:58;;;;;;;0.00;0.00;;;8.70;99.90;;;;;;4991529;28;20198;-56
2023/11/05 02:52:25;;;;;;;0.00;0.00;;;;;;;;;;4989228;28;20239;-56
2023/11/05 02:54:52;;;;;;;0.00;0.00;;;8.60;99.90;;;;;;4991218;28;20233;-56
2023/11/05 02:57:20;;;;;;;0.00;0.00;;;8.50;99.90;;;;;;4989956;28;20250;-56
2023/11/05 02:59:49;;;;;;;1.03;0.00;;;8.40;99.90;;;;;;4989280;28;20218;-56
2023/11/05 03:02:16;;;;;;;0.00;0.00;;;;;;;;;;4985241;28;20211;-56
2023/11/05 03:04:43;;;;;;;0.00;0.00;;;;;;;;;;4981029;28;20202;-56
2023/11/05 03:07:10;;;;;;;0.00;0.00;;;;;;;;;;4990948;28;20205;-56
2023/11/05 03:09:37;;;;;;;0.03;0.00;;;8.20;99.90;;;;;;4988174;28;20581;-56
2023/11/05 03:12:06;;;;;;;0.37;0.00;;;8.20;99.90;;;;;;4991254;28;20202;-56
2023/11/05 03:14:32;;;;;;;0.00;0.00;;;8.00;99.90;;;;;;4991999;28;20596;-56
2023/11/05 03:17:01;;;;;;;0.00;0.00;;;;;;;;;;4992056;28;20209;-56
2023/11/05 03:19:28;;;;;;;0.07;0.03;;;;;;;;;;4994074;28;20285;-56
2023/11/05 03:21:55;;;;;;;0.00;0.00;;;;;;;;;;4995922;28;20260;-56
2023/11/05 03:24:22;;;;;;;0.00;0.00;;;7.80;99.90;;;;;;4996207;28;20658;-56
2023/11/05 03:26:49;;;;;;;0.00;0.00;;;7.80;99.90;;;;;;4996284;28;20276;-56
2023/11/05 03:29:17;;;;;;;0.00;0.00;;;;;;;;;;4994862;28;20206;-56
2023/11/05 03:31:44;;;;;;;1.50;0.00;;;7.70;99.90;;;;;;4996232;28;20205;-55
2023/11/05 03:34:12;;;;;;;0.47;0.10;;;7.60;99.90;;;;;;4995630;28;20654;-56
2023/11/05 03:36:39;;;;;;;0.00;0.00;;;7.60;99.90;;;;;;4996139;28;20328;-56
2023/11/05 03:39:06;;;;;;;0.00;0.00;;;7.50;99.90;;;;;;4995196;28;20207;-55
2023/11/05 03:41:34;;;;;;;0.10;0.10;;;7.50;99.90;;;;;;4994093;28;20205;-56
2023/11/05 03:44:01;;;;;;;0.63;0.00;;;7.60;99.90;;;;;;4995588;28;20637;-55
2023/11/05 03:46:31;;;;;;;0.20;0.07;;;7.60;99.90;;;;;;4995679;28;20299;-56
2023/11/05 03:48:58;;;;;;;0.00;0.00;;;7.80;99.90;;;;;;4995013;28;20214;-59
2023/11/05 03:51:29;;;;;;;0.00;0.00;;;7.80;99.90;;;;;;4995463;28;20256;-56
2023/11/05 03:53:56;;;;;;;0.03;0.00;;;7.80;99.90;;;;;;4993482;28;20268;-56
2023/11/05 03:56:23;;;;;;;0.10;0.10;;;7.90;99.90;;;;;;4995560;28;20218;-56
2023/11/05 03:58:50;;;;;;;0.23;0.03;;;8.00;99.90;;;;;;4995116;28;20636;-55
2023/11/05 04:01:19;;;;;;;0.00;0.00;;;7.90;99.90;;;;;;4995412;28;20249;-56
2023/11/05 04:03:46;;;;;;;0.00;0.00;;;7.80;99.90;;;;;;4994632;28;20636;-56
2023/11/05 04:06:16;;;;;;;0.03;0.00;;;;;;;;;;4995348;28;20252;-56
2023/11/05 04:08:45;;;;;;;0.00;0.00;;;;;;;;;;4994770;28;20267;-56
2023/11/05 04:11:12;;;;;;;0.00;0.00;;;7.90;99.90;;;;;;4995432;28;20225;-56
2023/11/05 04:13:39;;;;;;;0.47;0.10;;;7.90;99.90;;;;;;4993698;28;20260;-56
2023/11/05 04:16:07;;;;;;;0.00;0.00;;;;;;;;;;4994766;28;20221;-56
2023/11/05 04:18:34;;;;;;;0.00;0.00;;;7.90;99.90;;;;;;4994673;28;20214;-56
2023/11/05 04:21:01;;;;;;;0.00;0.00;;;;;;;;;;4995235;28;20197;-56
2023/11/05 04:23:28;;;;;;;1.07;0.00;;;8.00;99.90;;;;;;4995249;28;20265;-56
2023/11/05 04:25:56;;;;;;;0.23;0.23;;;7.90;99.90;;;;;;4993106;28;20220;-56
2023/11/05 04:28:23;;;;;;;0.27;0.00;;;;;;;;;;4994818;28;20206;-56
2023/11/05 04:30:50;;;;;;;2.43;0.10;;;7.90;99.90;;;;;;4994182;28;20206;-56
2023/11/05 04:33:17;;;;;;;0.33;0.00;;;7.90;99.90;;;;;;4995187;28;20357;-56
2023/11/05 04:35:44;;;;;;;0.00;0.00;;;;;;;;;;4994364;28;20226;-57
2023/11/05 04:38:11;;;;;;;0.00;0.00;;;7.80;99.90;;;;;;4992554;28;20206;-56
2023/11/05 04:40:39;;;;;;;0.00;0.00;;;;;;;;;;4994124;28;20202;-56
2023/11/05 04:43:07;;;;;;;0.73;0.00;;;7.80;99.90;;;;;;4994718;28;20214;-56
2023/11/05 04:45:35;;;;;;;0.03;0.03;;;;;;;;;;4994232;28;20722;-56
2023/11/05 04:48:02;;;;;;;0.20;0.00;;;7.70;99.90;;;;;;4993988;28;20231;-56
2023/11/05 04:50:29;;;;;;;0.10;0.10;;;7.70;99.90;;;;;;4992256;28;20213;-56
2023/11/05 04:52:55;;;;;;;0.50;0.50;;;7.80;99.90;;;;;;4993192;28;20206;-56
2023/11/05 04:55:22;;;;;;;0.23;0.20;;;7.70;99.90;;;;;;4993944;28;20230;-56
2023/11/05 04:57:50;;;;;;;0.30;0.10;;;;;;;;;;4994542;28;20851;-56
2023/11/05 05:00:18;;;;;;;0.00;0.00;;;;;;;;;;4993978;28;20202;-56
2023/11/05 05:02:46;;;;;;;0.00;0.00;;;7.80;99.90;;;;;;4992654;28;20206;-56
2023/11/05 05:05:13;;;;;;;0.00;0.00;;;;;;;;;;4993792;28;20273;-56
2023/11/05 05:07:41;;;;;;;0.00;0.00;;;;;;;;;;4994326;28;20205;-56
2023/11/05 05:10:08;;;;;;;0.00;0.00;;;7.80;99.90;;;;;;4992314;28;20206;-56
2023/11/05 05:12:36;;;;;;;0.00;0.00;;;7.90;99.90;;;;;;4993835;28;20826;-56
2023/11/05 05:15:05;;;;;;;0.00;0.00;;;;;;;;;;4993643;28;20276;-56
2023/11/05 05:17:34;;;;;;;0.00;0.00;;;7.80;99.90;;;;;;4994072;28;20210;-56
2023/11/05 05:20:01;;;;;;;0.10;0.10;;;7.80;99.90;;;;;;4993381;28;20249;-56
2023/11/05 05:22:28;;;;;;;0.33;0.00;;;7.80;99.90;;;;;;4993817;28;20202;-55
2023/11/05 05:24:55;;;;;;;0.00;0.00;;;;;;;;;;4994402;28;20662;-56
2023/11/05 05:27:22;;;;;;;0.07;0.00;;;7.70;99.90;;;;;;4993742;28;20257;-55
2023/11/05 05:29:49;;;;;;;0.00;0.00;;;;;;;;;;4993156;28;20256;-56
2023/11/05 05:32:16;;;;;;;0.00;0.00;;;7.80;99.90;;;;;;4993780;28;20581;-56
2023/11/05 05:34:44;;;;;;;0.00;0.00;;;7.90;99.90;;;;;;4993186;28;20218;-56
2023/11/05 05:37:11;;;;;;;0.00;0.00;;;7.90;99.90;;;;;;4993643;28;20201;-56
2023/11/05 05:39:39;;;;;;;0.10;0.00;;;;;;;;;;4992791;28;20629;-56
2023/11/05 05:42:06;;;;;;;0.00;0.00;;;;;;;;;;4992979;28;20206;-56
2023/11/05 05:44:34;;;;;;;0.00;0.00;;;;;;;;;;4993220;28;20198;-56
2023/11/05 05:47:03;;;;;;;0.10;0.00;;;8.30;99.90;;;;;;4993642;28;20201;-55
2023/11/05 05:49:30;;;;;;;0.00;0.00;;;8.40;99.90;;;;;;4992433;28;20237;-56
2023/11/05 05:51:59;;;;;;;0.00;0.00;;;;;;;;;;4993093;28;20206;-56
2023/11/05 05:54:26;;;;;;;0.00;0.00;;;;;;;;;;4992926;28;20229;-56
2023/11/05 05:56:54;;;;;;;0.00;0.00;;;;;;;;;;4993165;28;20226;-56
2023/11/05 05:59:21;;;;;;;0.00;0.00;;;;;;;;;;4992453;28;20201;-56
2023/11/05 06:01:48;;;;;;;0.00;0.00;;;;;;;;;;4992892;28;20210;-56
2023/11/05 06:04:15;;;;;;;0.00;0.00;;;;;;;;;;4992490;28;20197;-56
2023/11/05 06:06:43;;;;;;;0.00;0.00;;;8.30;99.90;;;;;;4993123;28;20280;-56
2023/11/05 06:09:12;;;;;;;0.00;0.00;;;;;;;;;;4992330;28;20211;-56
2023/11/05 06:11:39;;;;;;;0.00;0.00;;;;;;;;;;4992523;28;20205;-56
2023/11/05 06:14:07;;;;;;;0.00;0.00;;;;;;;;;;4992619;28;20288;-56
2023/11/05 06:16:34;;;;;;;1.40;0.80;;;8.40;99.90;;;;;;4992729;28;20301;-56
2023/11/05 06:19:02;;;;;;;0.90;0.80;;;8.40;99.90;;;;;;4984741;28;20213;-56
2023/11/05 06:21:30;;;;;;;2.83;0.10;;;;;;;;;;4988453;28;20210;-56
2023/11/05 06:23:58;;;;;;;0.10;0.10;;;;;;;;;;4992343;28;20261;-56
2023/11/05 06:26:28;;;;;;;0.30;0.30;;;8.40;99.90;;;;;;4992706;28;20257;-56
2023/11/05 06:28:55;;;;;;;0.20;0.20;;;8.30;99.90;;;;;;4992746;28;20353;-56
2023/11/05 06:31:22;;;;;;;0.10;0.10;;;;;;;;;;4991541;28;20206;-56
2023/11/05 06:33:49;;;;;;;0.83;0.20;;;;;;;;;;4991988;28;20634;-56
2023/11/05 06:36:17;;;;;;;1.03;0.10;;;;;;;;;;4992335;28;20229;-56
2023/11/05 06:38:44;;;;;;;0.00;0.00;;;8.30;99.90;;;;;;4992368;28;20259;-56
2023/11/05 06:41:11;;;;;;;0.00;0.00;;;;;;;;;;4991900;28;20202;-56
2023/11/05 06:43:39;;;;;;;0.00;0.00;;;8.60;99.90;;;;;;4992363;28;20696;-56
2023/11/05 06:46:06;;;;;;;0.00;0.00;;;8.80;99.90;;;;;;4991866;28;20276;-56
2023/11/05 06:48:34;;;;;;;0.00;0.00;;;;;;;;;;4992734;28;20253;-56
2023/11/05 06:51:02;;;;;;;0.00;0.00;;;8.80;99.90;;;;;;4987655;28;20257;-56
2023/11/05 06:53:30;;;;;;;0.10;0.00;;;8.90;99.90;;;;;;4990645;28;20212;-56
2023/11/05 06:55:57;;;;;;;0.13;0.13;;;;;;;;;;4991779;28;20309;-56
2023/11/05 06:58:24;;;;;;;2.00;0.20;;;9.00;99.90;;;;;;4991243;28;20732;-56
2023/11/05 07:00:52;;;;;;;0.10;0.10;;;9.00;99.90;;;;;;4991346;28;20628;-56
2023/11/05 07:03:23;;;;;;;0.10;0.10;;;;;;;;;;4992194;28;20265;-56
2023/11/05 07:05:51;;;;;;;0.10;0.00;;;9.00;99.90;;;;;;4991725;28;20223;-56
2023/11/05 07:08:18;;;;;;;0.10;0.10;;;9.10;99.90;;;;;;4992095;28;20202;-56
2023/11/05 07:10:45;;;;;;;0.40;0.13;;;9.10;99.90;;;;;;4991349;28;20209;-56
2023/11/05 07:13:12;;;;;;;0.13;0.13;;;;;;;;;;4991912;28;20206;-56
2023/11/05 07:15:39;;;;;;;0.10;0.10;;;9.20;99.90;;;;;;4991665;28;20226;-56
2023/11/05 07:18:07;;;;;;;0.10;0.10;;;9.40;99.90;;;;;;4991837;28;20202;-56
2023/11/05 07:20:36;;;;;;;0.10;0.10;;;9.50;99.90;;;;;;4991001;28;20207;-56
2023/11/05 07:23:03;;;;;;;0.20;0.20;;;9.60;99.90;;;;;;4984268;28;20198;-56
2023/11/05 07:25:31;;;;;;;0.10;0.10;;;9.50;99.90;;;;;;4992466;28;20249;-56
2023/11/05 07:27:59;;;;;;;0.20;0.20;;;;;;;;;;4991803;28;20659;-56
2023/11/05 07:30:26;;;;;;;0.10;0.10;;;9.60;99.90;;;;;;4991426;28;20210;-56
2023/11/05 07:32:53;;;;;;;0.10;0.10;;;9.60;99.90;;;;;;4991685;28;20749;-56
2023/11/05 07:35:22;;;;;;;0.20;0.20;;;9.60;99.90;;;;;;4991294;28;20281;-56
2023/11/05 07:37:49;;;;;;;0.70;0.47;;;9.60;99.90;;;;;;4991780;28;20206;-56
2023/11/05 07:40:16;;;;;;;2.00;0.67;;;9.60;99.90;;;;;;4988520;28;20545;-55
2023/11/05 07:42:43;;;;;;;0.50;0.40;;;9.60;99.90;;;;;;4991021;28;20207;-57
2023/11/05 07:45:11;;;;;;;0.00;0.00;;;9.70;99.90;;;;;;4989425;28;20222;-57
2023/11/05 07:47:39;;;;;;;0.00;0.00;;;;;;;;;;4982908;28;20209;-57
2023/11/05 07:50:09;;;;;;;0.87;0.10;;;9.80;99.90;;;;;;4990360;28;20674;-57
2023/11/05 07:52:40;;;;;;;0.00;0.00;;;9.90;99.90;;;;;;4991211;28;20246;-58
2023/11/05 07:55:08;;;;;;;0.00;0.00;;;9.90;99.90;;;;;;4991305;28;20609;-58
2023/11/05 07:57:35;;;;;;;0.00;0.00;;;9.80;99.90;;;;;;4991489;28;20218;-57
2023/11/05 08:00:04;;;;;;;0.07;0.07;;;;;;;;;;4990354;28;20200;-57
2023/11/05 08:02:31;;;;;;;0.07;0.07;;;9.80;99.90;;;;;;4991441;28;20301;-58
2023/11/05 08:04:58;;;;;;;0.43;0.10;;;9.90;99.90;;;;;;4992406;28;20612;-58
2023/11/05 08:07:25;;;;;;;0.00;0.00;;;;;;;;;;4995140;28;20210;-58
2023/11/05 08:09:54;;;;;;;0.10;0.10;;;10.10;99.90;;;;;;4994981;28;20213;-57
2023/11/05 08:12:21;;;;;;;0.30;0.10;;;10.10;99.90;;;;;;4994358;28;20238;-58
2023/11/05 08:14:49;;;;;;;0.00;0.00;;;;;;;;;;4993810;28;20796;-57
2023/11/05 08:17:16;;;;;;;1.33;0.50;;;;;;;;;;4994942;28;20206;-58
2023/11/05 08:19:43;;;;;;;0.10;0.10;;;;;;;;;;4994129;28;20205;-58
2023/11/05 08:22:10;;;;;;;0.10;0.10;;;9.90;99.90;;;;;;4994973;28;20280;-58
2023/11/05 08:24:37;;;;;;;0.00;0.00;;;9.90;99.90;;;;;;4994443;28;20275;-58
2023/11/05 08:27:06;;;;;;;0.00;0.00;;;;;;;;;;4994587;28;20198;-57
2023/11/05 08:29:34;;;;;;;0.00;0.00;;;;;;;;;;4993800;28;20260;-57
2023/11/05 08:32:01;;;;;;;0.53;0.30;;;;;;;;;;4995275;28;20580;-58
2023/11/05 08:34:28;;;;;;;0.40;0.10;;;10.20;99.90;;;;;;4994033;28;20268;-58
2023/11/05 08:36:55;;;;;;;1.30;0.50;;;;;;;;;;4993743;28;20578;-57
2023/11/05 08:39:22;;;;;;;0.37;0.37;;;;;;;;;;4992566;28;20210;-57
2023/11/05 08:41:50;;;;;;;0.20;0.20;;;;;;;;;;4993869;28;21013;-56
2023/11/05 08:44:18;;;;;;;0.00;0.00;;;10.50;99.90;;;;;;4994335;28;20203;-56
2023/11/05 08:46:46;;;;;;;0.10;0.10;;;;;;;;;;4994646;28;20316;-56
2023/11/05 08:49:13;;;;;;;0.13;0.00;;;10.50;99.90;;;;;;4993771;28;20210;-57
2023/11/05 08:51:40;;;;;;;0.17;0.10;;;10.50;99.90;;;;;;4993248;28;20202;-57
2023/11/05 08:54:07;;;;;;;0.20;0.20;;;10.50;99.90;;;;;;4993974;28;20873;-58
2023/11/05 08:56:34;;;;;;;0.30;0.30;;;10.50;99.90;;;;;;4993754;28;20219;-58
2023/11/05 08:59:01;;;;;;;0.30;0.30;;;10.50;99.90;;;;;;4993178;28;20250;-58
2023/11/05 09:01:30;;;;;;;0.20;0.20;;;10.60;99.90;;;;;;4989802;28;20265;-59
2023/11/05 09:03:57;;;;;;;1.90;0.30;;;10.60;99.90;;;;;;4992605;28;20753;-59
2023/11/05 09:06:30;;;;;;;0.33;0.30;;;;;;;;;;4994001;28;20281;-59
2023/11/05 09:08:57;;;;;;;0.20;0.20;;;;;;;;;;4992571;28;20217;-58
2023/11/05 09:11:26;;;;;;;0.70;0.40;;;;;;;;;;4993679;28;20689;-57
2023/11/05 09:13:52;;;;;;;1.50;1.23;;;10.40;99.90;;;;;;4993514;28;20210;-56
2023/11/05 09:16:19;;;;;;;0.20;0.20;;;10.50;99.90;;;;;;4993551;28;20761;-58
2023/11/05 09:18:48;;;;;;;0.10;0.10;;;10.40;99.90;;;;;;4994731;28;20205;-57
2023/11/05 09:21:15;;;;;;;0.20;0.10;;;;;;;;;;4993810;28;20229;-58
2023/11/05 09:23:42;;;;;;;0.10;0.10;;;10.20;99.90;;;;;;4994089;28;20210;-58
2023/11/05 09:26:09;;;;;;;0.40;0.40;;;10.20;99.90;;;;;;4994002;28;20224;-57
2023/11/05 09:28:36;;;;;;;0.20;0.20;;;10.00;99.90;;;;;;4994074;28;20264;-57
2023/11/05 09:31:03;;;;;;;0.10;0.10;;;9.10;99.90;;;;;;4993954;28;20241;-57
2023/11/05 09:33:30;;;;;;;0.57;0.30;;;10.00;99.90;;;;;;4994460;28;20230;-57
2023/11/05 09:35:59;;;;;;;0.33;0.30;;;;;;;;;;4994087;28;20652;-57
2023/11/05 09:38:26;;;;;;;1.07;0.20;;;10.30;99.90;;;;;;4994366;28;20729;-58
2023/11/05 09:40:53;;;;;;;0.77;0.50;;;10.30;99.90;;;;;;4993855;28;20205;-57
2023/11/05 09:43:20;;;;;;;0.40;0.40;;;;;;;;;;4993711;28;20690;-57
2023/11/05 09:45:50;;;;;;;0.50;0.27;;;;;;;;;;4993478;28;20286;-57
2023/11/05 09:48:21;;;;;;;0.40;0.40;;;10.20;99.90;;;;;;4993769;28;20209;-57
2023/11/05 09:50:48;;;;;;;0.63;0.50;;;10.20;99.90;;;;;;4992779;28;20203;-57
2023/11/05 09:53:17;;;;;;;1.27;0.77;;;10.20;99.90;;;;;;4994091;28;20212;-57
2023/11/05 09:55:46;;;;;;;0.87;0.87;;;10.20;99.90;;;;;;4992232;28;20234;-57
2023/11/05 09:58:14;;;;;;;1.47;1.30;;;10.10;99.90;;;;;;4993883;28;20203;-57
2023/11/05 10:00:42;;;;;;;1.67;1.57;;;10.10;99.90;;;;;;4993798;28;20674;-59
2023/11/05 10:03:10;;;;;;;0.70;0.70;;;10.20;99.90;;;;;;4993894;28;20272;-57
2023/11/05 10:05:38;;;;;;;3.80;1.00;;;10.40;99.90;;;;;;4993289;28;20234;-57
2023/11/05 10:08:06;;;;;;;1.08;0.90;;;10.30;99.90;;;;;;4992321;28;20496;-57
2023/11/05 10:10:35;;;;;;;2.10;1.27;;;;;;;;;;4993285;28;20206;-58
2023/11/05 10:13:04;;;;;;;1.00;0.90;;;10.30;99.90;;;;;;4992272;28;20717;-57
2023/11/05 10:15:34;;;;;;;1.60;1.20;;;10.40;99.90;;;;;;4992264;28;20226;-57
2023/11/05 10:18:01;;;;;;;1.27;1.27;;;10.40;99.90;;;;;;4993037;28;20207;-57
2023/11/05 10:20:30;;;;;;;0.63;0.63;;;10.50;99.90;;;;;;4993102;28;20832;-57
2023/11/05 10:23:01;;;;;;;0.20;0.20;;;;;;;;;;4992695;28;20257;-58
2023/11/05 10:25:28;;;;;;;2.03;0.40;;;10.70;99.90;;;;;;4992212;28;20226;-58
2023/11/05 10:27:57;;;;;;;1.07;0.57;;;10.80;99.90;;;;;;4991293;28;20670;-57
2023/11/05 10:30:25;;;;;;;1.70;0.73;;;10.80;99.90;;;;;;4992650;28;20210;-57
2023/11/05 10:32:53;;;;;;;2.20;0.50;;;10.80;99.90;;;;;;4992361;28;20219;-58
2023/11/05 10:35:22;;;;;;;2.20;1.20;;;10.70;99.90;;;;;;4991307;28;20224;-57
2023/11/05 10:37:51;;;;;;;2.30;0.40;;;;;;;;;;4992318;28;20223;-57
2023/11/05 10:40:19;;;;;;;1.43;0.20;;;10.30;99.90;;;;;;4992755;28;20309;-57
2023/11/05 10:42:47;;;;;;;0.30;0.20;;;10.70;99.90;;;;;;4992342;28;20267;-57
2023/11/05 10:45:17;;;;;;;0.40;0.40;;;10.80;99.90;;;;;;4991367;28;20314;-57
2023/11/05 10:47:46;;;;;;;0.40;0.27;;;10.70;99.90;;;;;;4992321;28;20636;-58
2023/11/05 10:50:16;;;;;;;0.37;0.37;;;10.60;99.90;;;;;;4992744;28;20260;-57
2023/11/05 10:52:45;;;;;;;0.40;0.40;;;10.70;99.90;;;;;;4992366;28;20250;-58
2023/11/05 10:55:13;;;;;;;0.50;0.50;;;;;;;;;;4991992;28;20222;-57
2023/11/05 10:57:44;;;;;;;0.50;0.50;;;10.50;99.90;;;;;;4991974;28;20603;-57
2023/11/05 11:00:29;;;;;;;0.30;0.30;;;;;;;;;;4991418;28;20221;-57
2023/11/05 11:03:00;;;;;;;0.40;0.30;;;10.70;99.90;;;;;;4987337;28;20211;-57
2023/11/05 11:06:01;;;;;;;0.67;0.40;;;11.00;99.90;;;;;;4991586;28;20725;-57
2023/11/05 11:08:30;;;;;;;0.20;0.20;;;11.20;99.90;;;;;;4991094;28;20210;-57
2023/11/05 11:11:18;;;;;;;0.87;0.23;;;11.30;99.90;;;;;;4992007;28;20702;-57
2023/11/05 11:13:49;;;;;;;0.23;0.20;;;;;;;;;;4991955;28;20266;-57
2023/11/05 11:16:25;;;;;;;0.30;0.30;;;12.00;99.90;;;;;;4990788;28;20224;-56
2023/11/05 11:18:54;;;;;;;1.13;0.40;;;12.40;99.90;;;;;;4989369;28;20206;-56
2023/11/05 11:21:26;;;;;;;0.40;0.40;;;12.60;99.90;;;;;;4991945;28;20206;-56
2023/11/05 11:23:53;;;;;;;0.93;0.50;;;12.70;99.90;;;;;;4991716;28;20241;-56
2023/11/05 11:26:21;;;;;;;0.40;0.40;;;;;;;;;;4991852;28;20718;-56
2023/11/05 11:28:55;;;;;;;0.57;0.20;;;12.80;99.90;;;;;;4991945;28;20209;-56
2023/11/05 11:31:28;;;;;;;0.20;0.20;;;12.90;99.90;;;;;;4991809;28;20272;-56
2023/11/05 11:33:56;;;;;;;0.47;0.20;;;12.90;99.90;;;;;;4990196;28;20690;-56
2023/11/05 11:36:27;;;;;;;0.20;0.20;;;13.30;99.90;;;;;;4986180;28;20282;-58
2023/11/05 11:38:54;;;;;;;0.37;0.30;;;13.40;99.90;;;;;;4991784;28;20721;-58
2023/11/05 11:41:25;;;;;;;0.20;0.20;;;13.90;99.90;;;;;;4995408;28;20204;-59
2023/11/05 11:43:52;;;;;;;0.30;0.30;;;;;;;;;;4995382;28;20697;-58
2023/11/05 11:46:25;;;;;;;0.10;0.10;;;;;;;;;;4995151;28;20233;-58
2023/11/05 11:48:52;;;;;;;0.00;0.00;;;14.30;99.90;;;;;;4994540;28;20339;-58
2023/11/05 11:51:22;;;;;;;0.10;0.10;;;14.40;99.90;;;;;;4994209;28;20219;-57
2023/11/05 11:53:49;;;;;;;0.17;0.17;;;14.30;99.90;;;;;;4996524;28;20207;-58
2023/11/05 11:56:16;;;;;;;1.33;0.50;;;14.20;99.90;;;;;;4994879;28;20782;-57
2023/11/05 11:58:43;;;;;;;0.23;0.10;;;;;;;;;;4995662;28;20207;-58
2023/11/05 12:01:13;;;;;;;0.17;0.17;;;14.00;99.90;;;;;;4995477;28;20270;-58
2023/11/05 12:03:40;;;;;;;0.10;0.10;;;14.10;99.90;;;;;;4995488;28;20299;-58
2023/11/05 12:06:08;;;;;;;0.93;0.20;;;;;;;;;;4989128;28;20269;-59
2023/11/05 12:08:37;;;;;;;0.40;0.40;;;14.10;99.90;;;;;;4995151;28;20259;-58
2023/11/05 12:11:06;;;;;;;0.17;0.17;;;;;;;;;;4994132;28;20198;-58
2023/11/05 12:13:33;;;;;;;0.20;0.20;;;;;;;;;;4995024;28;20239;-58
2023/11/05 12:16:02;;;;;;;0.37;0.37;;;14.00;99.90;;;;;;4994595;28;20282;-57
2023/11/05 12:18:31;;;;;;;0.97;0.10;;;14.10;99.90;;;;;;4994994;28;20206;-57
2023/11/05 12:20:59;;;;;;;1.60;0.30;;;14.00;99.90;;;;;;4993873;28;21705;-58
2023/11/05 12:23:26;;;;;;;0.20;0.20;;;14.00;99.90;;;;;;4994867;28;20235;-58
2023/11/05 12:25:58;;;;;;;0.20;0.20;;;14.00;99.90;;;;;;4994602;28;20227;-58
2023/11/05 12:28:25;;;;;;;0.60;0.50;;;;;;;;;;4994927;28;20719;-58
2023/11/05 12:30:52;;;;;;;0.00;0.00;;;14.20;99.90;;;;;;4994795;28;20786;-58
2023/11/05 12:33:23;;;;;;;0.50;0.50;;;;;;;;;;4992490;28;20211;-56
2023/11/05 12:35:50;;;;;;;0.20;0.20;;;14.30;99.90;;;;;;4992208;28;20232;-56
2023/11/05 12:38:17;;;;;;;2.73;0.40;;;14.30;99.90;;;;;;4994392;28;20220;-57
2023/11/05 12:40:45;;;;;;;1.07;0.20;;;;;;;;;;4994158;28;20295;-57
2023/11/05 12:43:13;;;;;;;0.20;0.20;;;14.20;99.90;;;;;;4993955;28;20196;-58
2023/11/05 12:45:40;;;;;;;0.10;0.10;;;14.10;99.90;;;;;;4991641;28;20287;-58
2023/11/05 12:48:07;;;;;;;0.10;0.10;;;14.10;99.90;;;;;;4994413;28;20196;-58
2023/11/05 12:50:34;;;;;;;0.00;0.00;;;14.10;99.90;;;;;;4994085;28;20239;-58
2023/11/05 12:53:01;;;;;;;0.10;0.10;;;14.10;99.90;;;;;;4993818;28;20745;-58
2023/11/05 12:55:30;;;;;;;0.23;0.20;;;14.20;99.90;;;;;;4993802;28;20830;-58
2023/11/05 12:57:58;;;;;;;0.00;0.00;;;14.00;99.90;;;;;;4993546;28;20259;-58
2023/11/05 13:00:27;;;;;;;0.37;0.00;;;13.80;99.90;;;;;;4994412;28;20327;-58
2023/11/05 13:02:54;;;;;;;0.40;0.40;;;13.90;99.90;;;;;;4994089;28;20261;-59
2023/11/05 13:05:21;;;;;;;0.30;0.00;;;13.90;99.90;;;;;;4993641;28;20227;-59
2023/11/05 13:07:49;;;;;;;0.00;0.00;;;14.00;99.90;;;;;;4993293;28;20208;-59
2023/11/05 13:10:17;;;;;;;0.17;0.10;;;14.00;99.90;;;;;;4994221;28;20290;-58
2023/11/05 13:12:44;;;;;;;0.10;0.10;;;13.90;99.90;;;;;;4992031;28;20212;-56
2023/11/05 13:15:12;;;;;;;0.00;0.00;;;13.70;99.90;;;;;;4992204;28;20223;-57
2023/11/05 13:17:41;;;;;;;0.57;0.20;;;13.70;99.90;;;;;;4993875;28;20223;-57
2023/11/05 13:20:11;;;;;;;0.10;0.10;;;13.60;99.90;;;;;;4993793;28;20272;-57
2023/11/05 13:22:39;;;;;;;0.10;0.10;;;13.40;99.90;;;;;;4991626;28;20210;-57
2023/11/05 13:25:08;;;;;;;0.00;0.00;;;13.30;99.90;;;;;;4993218;28;20216;-57
2023/11/05 13:27:36;;;;;;;0.10;0.10;;;13.20;99.90;;;;;;4993069;28;20285;-57